Morgantown, WV (26501)

10:38 AM EST on February 06, 2016 (GMT -0500)
WVU Evansdale NRCCE | | Change Station
CLOSE
Current Station
Personal Weather Station
Location: Morgantown, WV
Elevation: 1115 ft
Nearby Weather Stations

Elev 1115 ft 39.65 °N, 79.97 °W | Updated 26 seconds ago

Clear
Clear
38.5 °F
Feels Like 33 °F
N
7.6
Wind Variable Wind from SSW
Gusts 13.9 mph

Today
High -- | Low -- °F
--% Chance of Precip.
Yesterday
High -- | Low -- °F
Precip. -- in
Pressure 30.38 in
Visibility 10.0 miles
Clouds Clear
Windchill 33 °F
Dew Point 20 °F
Humidity 48%
Rainfall 0.00 in
Snow Depth Not available.
7:23 AM 5:45 PM
Waning Crescent, 5% visible
METAR KMGW 061453Z 19006KT 10SM CLR 02/M10 A3034 RMK AO2 SLP287 T00171100 56002
Pressure 30.38 in
Visibility 10.0 miles
Clouds Clear
Windchill 33 °F
Dew Point 20 °F
Humidity 48%
Rainfall 0.00 in
Snow Depth Not available.
7:23 AM 5:45 PM
Waning Crescent, 5% visible
METAR KMGW 061453Z 19006KT 10SM CLR 02/M10 A3034 RMK AO2 SLP287 T00171100 56002

10-Day Weather Forecast

Almanac

Astronomy

Feb. 06, 2016 Rise Set
Actual Time
Civil Twilight
Nautical Twilight
Astronomical Twilight
Moon
Length of Visible Light
Length of Day
Tomorrow will be .
, % of the Moon is Illuminated

Today's Extremes

State Highs State Lows

Community

WunderPhotos

Upload Photos

1,890,987 photos uploaded!

WunderBlog® & News

Nearby

Air Quality

  Air Quality AQ Index Pollutant
Not available.

Snow Depth

Station Depth Elevation

Earthquake Activity

City Distance Mag. Time & Date
Minimum magnitude displayed is 2.5.

Coastal Water Temperatures

Place Temperature

Stations

Nearby Weather Stations

Station Location Temp. Windchill Dew Point Humidity Wind Precip. Elev Updated Type
                   

Watches & Warnings

There are currently no watches in effect.